createdAt,value
2022-10-26T00:01:10.001Z,4.20
2022-10-26T00:03:40.210Z,4.00
2022-10-26T00:06:10.742Z,3.40
2022-10-26T00:08:38.152Z,4.20
2022-10-26T00:11:05.882Z,4.10
2022-10-26T00:13:33.535Z,4.10
2022-10-26T00:21:07.822Z,4.90
2022-10-26T00:23:34.846Z,3.80
2022-10-26T00:26:03.250Z,3.50
2022-10-26T00:28:30.470Z,3.70
2022-10-26T00:31:12.351Z,3.60
2022-10-26T00:33:39.331Z,4.20
2022-10-26T00:36:08.778Z,4.30
2022-10-26T00:38:35.911Z,3.70
2022-10-26T00:41:03.240Z,3.50
2022-10-26T00:43:29.934Z,3.50
2022-10-26T00:45:58.683Z,3.70
2022-10-26T00:48:29.525Z,3.90
2022-10-26T00:51:00.373Z,3.90
2022-10-26T00:53:28.628Z,4.30
2022-10-26T00:55:56.144Z,3.50
2022-10-26T00:58:25.523Z,3.90
2022-10-26T01:00:52.732Z,4.40
2022-10-26T01:03:20.403Z,3.90
2022-10-26T01:05:48.996Z,4.20
2022-10-26T01:08:17.658Z,3.80
2022-10-26T01:10:44.947Z,4.10
2022-10-26T01:13:13.831Z,3.80
2022-10-26T01:16:21.287Z,4.40
2022-10-26T01:19:38.620Z,4.10
2022-10-26T01:22:21.852Z,3.50
2022-10-26T01:25:02.520Z,3.80
2022-10-26T01:27:41.044Z,4.20
2022-10-26T01:30:37.308Z,3.80
2022-10-26T01:33:13.329Z,4.40
2022-10-26T01:35:53.442Z,4.00
2022-10-26T01:38:24.207Z,4.80
2022-10-26T01:41:17.810Z,4.00
2022-10-26T01:43:58.110Z,4.10
2022-10-26T01:46:28.609Z,4.10
2022-10-26T01:49:01.160Z,4.00
2022-10-26T01:51:29.618Z,4.70
2022-10-26T01:53:57.754Z,4.20
2022-10-26T01:56:31.670Z,3.80
2022-10-26T01:59:21.974Z,3.60
2022-10-26T02:01:50.369Z,3.70
2022-10-26T02:04:41.352Z,4.00
2022-10-26T02:07:29.973Z,4.70
2022-10-26T02:10:05.776Z,4.40
2022-10-26T02:12:59.265Z,4.30
2022-10-26T02:15:45.687Z,3.90
2022-10-26T02:18:30.486Z,4.00
2022-10-26T02:21:03.569Z,4.50
2022-10-26T02:23:34.304Z,4.20
2022-10-26T02:26:05.004Z,4.00
2022-10-26T02:28:38.508Z,4.00
2022-10-26T02:31:07.094Z,4.20
2022-10-26T02:33:39.417Z,4.00
2022-10-26T02:38:38.841Z,4.10
2022-10-26T02:41:07.132Z,4.50
2022-10-26T02:43:41.467Z,5.20
2022-10-26T02:46:13.178Z,4.00
2022-10-26T02:48:40.442Z,4.50
2022-10-26T02:51:41.763Z,5.00
2022-10-26T02:54:46.724Z,5.20
2022-10-26T02:57:23.059Z,4.60
2022-10-26T02:59:50.583Z,4.80
2022-10-26T03:02:19.739Z,5.60
2022-10-26T03:04:49.676Z,5.40
2022-10-26T03:07:23.814Z,5.30
2022-10-26T03:09:50.939Z,5.40
2022-10-26T03:12:17.774Z,5.20
2022-10-26T03:14:44.935Z,6.50
2022-10-26T03:17:11.756Z,6.30
2022-10-26T03:19:38.706Z,5.90
2022-10-26T03:22:05.498Z,5.60
2022-10-26T03:24:32.403Z,6.80
2022-10-26T03:27:02.043Z,6.80
2022-10-26T03:29:29.425Z,6.00
2022-10-26T03:31:56.309Z,5.80
2022-10-26T03:34:23.141Z,5.00
2022-10-26T03:36:49.855Z,6.90
2022-10-26T03:39:17.034Z,5.40
2022-10-26T03:41:44.148Z,6.20
2022-10-26T03:44:11.102Z,5.60
2022-10-26T03:46:37.931Z,6.00
2022-10-26T03:49:04.838Z,6.00
2022-10-26T03:51:31.618Z,5.60
2022-10-26T03:53:58.351Z,6.10
2022-10-26T03:56:25.434Z,6.40
2022-10-26T03:58:52.380Z,6.70
2022-10-26T04:01:19.278Z,6.80
2022-10-26T04:03:46.348Z,7.60
2022-10-26T04:06:13.363Z,7.90
2022-10-26T04:08:40.122Z,7.20
2022-10-26T04:11:06.891Z,8.20
2022-10-26T04:13:33.794Z,7.60
2022-10-26T04:16:00.676Z,7.20
2022-10-26T04:18:27.504Z,6.40
2022-10-26T04:20:54.276Z,6.40
2022-10-26T04:23:21.585Z,6.40
2022-10-26T04:25:48.462Z,6.10
2022-10-26T04:28:15.281Z,5.20
2022-10-26T04:30:42.185Z,5.20
2022-10-26T04:33:09.552Z,5.50
2022-10-26T04:35:36.344Z,5.90
2022-10-26T04:38:05.663Z,5.30
2022-10-26T04:40:34.123Z,6.20
2022-10-26T04:43:01.241Z,6.20
2022-10-26T04:45:30.131Z,6.00
2022-10-26T04:48:05.113Z,6.30
2022-10-26T04:50:32.512Z,6.30
2022-10-26T04:53:00.059Z,5.80
2022-10-26T04:55:26.897Z,6.20
2022-10-26T04:57:55.971Z,5.70
2022-10-26T05:00:26.091Z,5.60
2022-10-26T05:03:07.843Z,5.40
2022-10-26T05:05:36.693Z,5.50
2022-10-26T05:08:03.816Z,5.50
2022-10-26T05:10:30.766Z,4.90
2022-10-26T05:12:59.563Z,5.00
2022-10-26T05:15:27.813Z,5.30
2022-10-26T05:18:02.855Z,5.70
2022-10-26T05:20:31.854Z,5.70
2022-10-26T05:23:01.155Z,6.60
2022-10-26T05:25:31.091Z,5.90
2022-10-26T05:28:03.542Z,5.80
2022-10-26T05:30:31.468Z,6.30
2022-10-26T05:33:02.464Z,6.30
2022-10-26T05:35:29.710Z,6.20
2022-10-26T05:37:56.710Z,6.70
2022-10-26T05:40:24.054Z,6.40
2022-10-26T05:42:51.840Z,7.20
2022-10-26T05:45:18.956Z,7.10
2022-10-26T05:47:46.013Z,7.20
2022-10-26T05:50:13.642Z,6.90
2022-10-26T05:52:42.533Z,7.20
2022-10-26T05:55:10.945Z,7.30
2022-10-26T05:57:38.262Z,7.50
2022-10-26T06:00:14.602Z,7.60
2022-10-26T06:02:49.271Z,7.70
2022-10-26T06:05:23.285Z,7.70
2022-10-26T06:07:50.740Z,6.80
2022-10-26T06:10:18.486Z,7.90
2022-10-26T06:33:47.063Z,6.40
2022-10-26T06:36:23.321Z,7.10
2022-10-26T06:38:56.901Z,6.70
2022-10-26T06:41:26.393Z,7.00
2022-10-26T06:43:54.805Z,6.80
2022-10-26T06:46:44.990Z,6.40
2022-10-26T06:49:28.460Z,6.50
2022-10-26T06:52:10.269Z,6.70
2022-10-26T06:54:49.666Z,5.90
2022-10-26T06:57:20.414Z,6.00
2022-10-26T06:59:53.195Z,5.90
2022-10-26T07:02:22.030Z,5.50
2022-10-26T07:04:50.425Z,5.00
2022-10-26T07:07:21.313Z,4.80
2022-10-26T07:09:50.407Z,4.60
2022-10-26T07:12:18.923Z,5.70
2022-10-26T07:14:47.111Z,4.80
2022-10-26T07:17:15.325Z,5.00
2022-10-26T07:19:44.942Z,5.80
2022-10-26T07:22:13.319Z,5.10
2022-10-26T07:24:41.434Z,4.80
2022-10-26T07:27:09.623Z,4.70
2022-10-26T07:29:37.995Z,4.00
2022-10-26T07:32:06.400Z,4.10
2022-10-26T07:34:34.673Z,4.20
2022-10-26T07:37:03.476Z,4.40
2022-10-26T07:39:32.957Z,5.00
2022-10-26T07:42:01.272Z,4.00
2022-10-26T07:44:29.532Z,4.30
2022-10-26T07:46:58.408Z,4.50
2022-10-26T07:49:27.923Z,4.00
2022-10-26T07:51:56.394Z,5.30
2022-10-26T07:54:24.794Z,5.00
2022-10-26T07:56:53.217Z,3.40
2022-10-26T07:59:21.381Z,4.70
2022-10-26T08:01:49.711Z,4.00
2022-10-26T08:04:18.042Z,4.20
2022-10-26T08:06:47.439Z,3.90
2022-10-26T08:09:15.689Z,3.40
2022-10-26T08:11:43.996Z,3.50
2022-10-26T08:14:12.894Z,4.00
2022-10-26T08:16:41.166Z,3.40
2022-10-26T08:19:09.824Z,2.90
2022-10-26T08:21:40.918Z,4.00
2022-10-26T08:24:09.319Z,3.50
2022-10-26T08:26:37.758Z,3.80
2022-10-26T08:29:05.922Z,4.10
2022-10-26T08:31:34.193Z,3.50
2022-10-26T08:34:04.164Z,3.90
2022-10-26T08:36:32.461Z,3.80
2022-10-26T08:39:04.086Z,3.70
2022-10-26T08:41:47.833Z,3.10
2022-10-26T08:44:26.166Z,3.50
2022-10-26T08:47:11.353Z,3.20
2022-10-26T08:49:47.385Z,3.40
2022-10-26T08:52:22.799Z,3.30
2022-10-26T08:54:54.643Z,3.60
2022-10-26T08:57:38.759Z,2.80
2022-10-26T09:00:17.579Z,4.40
2022-10-26T09:02:49.990Z,3.40
2022-10-26T09:05:23.700Z,3.80
2022-10-26T09:08:07.059Z,2.80
2022-10-26T09:10:41.467Z,3.30
2022-10-26T09:13:42.860Z,3.60
2022-10-26T09:16:23.507Z,3.20
2022-10-26T09:19:35.570Z,3.20
2022-10-26T09:22:31.861Z,3.50
2022-10-26T09:25:12.772Z,4.00
2022-10-26T09:27:47.823Z,3.30
2022-10-26T09:30:20.579Z,4.10
2022-10-26T09:32:52.763Z,4.10
2022-10-26T09:35:31.616Z,3.20
2022-10-26T09:38:09.970Z,3.60
2022-10-26T09:40:47.641Z,3.50
2022-10-26T09:43:30.647Z,3.50
2022-10-26T09:45:58.987Z,3.60
2022-10-26T09:48:41.584Z,3.20
2022-10-26T09:51:11.321Z,3.00
2022-10-26T09:53:39.613Z,2.60
2022-10-26T09:56:11.877Z,2.60
2022-10-26T09:59:05.368Z,2.50
2022-10-26T10:01:38.494Z,2.40
2022-10-26T10:04:13.632Z,2.40
2022-10-26T10:06:43.379Z,2.40
2022-10-26T10:09:15.960Z,2.30
2022-10-26T10:11:58.004Z,2.80
2022-10-26T10:14:39.664Z,2.70
2022-10-26T10:17:23.272Z,1.90
2022-10-26T10:19:52.739Z,3.10
2022-10-26T10:22:25.578Z,2.30
2022-10-26T10:25:00.113Z,2.40
2022-10-26T10:27:30.314Z,2.60
2022-10-26T10:30:07.206Z,2.60
2022-10-26T10:32:38.958Z,2.60
2022-10-26T10:35:24.653Z,2.50
2022-10-26T10:37:53.195Z,3.00
2022-10-26T10:40:24.708Z,2.40
2022-10-26T10:43:03.269Z,2.10
2022-10-26T10:45:32.761Z,2.20
2022-10-26T10:48:13.340Z,1.90
2022-10-26T10:51:01.137Z,1.80
2022-10-26T10:53:44.694Z,1.80
2022-10-26T10:56:28.383Z,2.10
2022-10-26T10:59:19.241Z,2.10
2022-10-26T11:02:29.489Z,2.10
2022-10-26T11:05:13.337Z,2.60
2022-10-26T11:07:52.925Z,2.00
2022-10-26T11:10:26.879Z,2.60
2022-10-26T11:12:59.873Z,1.90
2022-10-26T11:15:32.870Z,2.50
2022-10-26T11:18:13.870Z,2.20
2022-10-26T11:21:38.177Z,2.30
2022-10-26T11:24:22.637Z,2.00
2022-10-26T11:26:54.341Z,2.40
2022-10-26T11:29:48.643Z,2.50
2022-10-26T11:32:22.869Z,2.40
2022-10-26T11:35:00.736Z,2.10
2022-10-26T11:37:51.450Z,2.20
2022-10-26T11:40:44.844Z,2.80
2022-10-26T11:43:31.312Z,2.40
2022-10-26T11:46:24.418Z,2.40
2022-10-26T11:49:07.300Z,2.70
2022-10-26T11:51:41.696Z,2.40
2022-10-26T11:54:26.142Z,2.20
2022-10-26T11:56:57.116Z,2.20
2022-10-26T11:59:37.968Z,2.50
2022-10-26T12:02:15.498Z,2.30
2022-10-26T12:04:47.729Z,2.30
2022-10-26T12:07:26.683Z,2.20
2022-10-26T12:09:57.826Z,2.10
2022-10-26T12:12:37.449Z,2.50
2022-10-26T12:15:35.546Z,2.20
2022-10-26T12:18:43.202Z,2.40
2022-10-26T12:21:15.703Z,2.30
2022-10-26T12:23:59.514Z,2.50
2022-10-26T12:26:27.704Z,2.10
2022-10-26T12:29:02.545Z,2.10
2022-10-26T12:31:37.043Z,2.70
2022-10-26T12:34:12.371Z,1.70
2022-10-26T12:36:56.628Z,1.90
2022-10-26T12:39:35.757Z,1.80
2022-10-26T12:42:10.012Z,1.90
2022-10-26T12:44:41.468Z,1.90
2022-10-26T12:47:30.522Z,2.20
2022-10-26T12:50:05.765Z,2.10
2022-10-26T12:52:45.602Z,1.70
2022-10-26T12:55:20.349Z,1.80
2022-10-26T12:58:07.684Z,1.60
2022-10-26T13:00:42.732Z,1.80
2022-10-26T13:03:39.623Z,2.30
2022-10-26T13:06:17.442Z,1.90
2022-10-26T13:08:49.303Z,2.10
2022-10-26T13:11:23.316Z,1.90
2022-10-26T13:13:57.419Z,1.70
2022-10-26T13:16:28.335Z,1.60
2022-10-26T13:18:57.436Z,1.50
2022-10-26T13:21:26.841Z,1.60
2022-10-26T13:23:55.863Z,1.60
2022-10-26T13:26:26.569Z,1.70
2022-10-26T13:28:57.439Z,1.40
2022-10-26T13:31:28.771Z,2.00
2022-10-26T13:34:01.668Z,1.50
2022-10-26T13:36:45.671Z,1.60
2022-10-26T13:39:20.725Z,1.80
2022-10-26T13:41:52.583Z,1.50
2022-10-26T13:44:27.826Z,1.50
2022-10-26T13:47:02.477Z,1.40
2022-10-26T13:49:39.402Z,1.40
2022-10-26T13:52:19.124Z,1.60
2022-10-26T13:54:59.256Z,1.60
2022-10-26T13:57:43.867Z,1.60
2022-10-26T14:00:23.829Z,1.60
2022-10-26T14:02:52.357Z,1.80
2022-10-26T14:05:22.223Z,1.60
2022-10-26T14:07:56.858Z,1.70
2022-10-26T14:10:38.918Z,1.60
2022-10-26T14:13:08.920Z,2.50
2022-10-26T14:15:37.248Z,2.10
2022-10-26T14:18:05.485Z,2.00
2022-10-26T14:20:33.909Z,2.00
2022-10-26T14:23:02.107Z,1.90
2022-10-26T14:25:42.400Z,2.00
2022-10-26T14:28:28.910Z,2.10
2022-10-26T14:31:25.464Z,2.20
2022-10-26T14:33:54.925Z,2.10
2022-10-26T14:36:34.311Z,2.70
2022-10-26T14:39:07.932Z,3.00
2022-10-26T14:41:36.584Z,3.70
2022-10-26T14:44:04.971Z,3.00
2022-10-26T14:46:35.848Z,2.70
2022-10-26T14:49:04.915Z,2.80
2022-10-26T14:51:36.437Z,2.70
2022-10-26T14:54:05.043Z,2.80
2022-10-26T14:56:36.548Z,3.00
2022-10-26T14:59:24.571Z,3.60
2022-10-26T15:02:02.437Z,3.40
2022-10-26T15:04:36.660Z,3.50
2022-10-26T15:07:18.811Z,3.00
2022-10-26T15:09:49.366Z,3.00
2022-10-26T15:12:23.611Z,3.30
2022-10-26T15:14:52.588Z,3.10
2022-10-26T15:17:24.645Z,2.90
2022-10-26T15:19:53.954Z,3.20
2022-10-26T15:22:31.147Z,3.10
2022-10-26T15:25:04.745Z,3.30
2022-10-26T15:27:33.156Z,3.80
2022-10-26T15:30:37.242Z,3.10
2022-10-26T15:33:22.234Z,4.30
2022-10-26T15:35:50.706Z,5.00
2022-10-26T15:38:19.032Z,5.20
2022-10-26T15:40:47.085Z,5.90
2022-10-26T15:43:15.451Z,5.30
2022-10-26T15:45:52.171Z,5.80
2022-10-26T15:48:29.315Z,5.70
2022-10-26T15:50:58.394Z,7.00
2022-10-26T15:53:27.674Z,6.10
2022-10-26T15:55:58.916Z,13.80
2022-10-26T15:58:29.833Z,25.50
2022-10-26T16:00:57.933Z,9.40
2022-10-26T16:03:27.390Z,5.80
2022-10-26T16:05:58.790Z,5.80
2022-10-26T16:08:30.120Z,5.10
2022-10-26T16:10:58.826Z,4.40
2022-10-26T16:13:26.945Z,5.10
2022-10-26T16:15:55.312Z,5.40
2022-10-26T16:18:23.662Z,4.00
2022-10-26T16:20:51.777Z,5.10
2022-10-26T16:23:19.899Z,5.20
2022-10-26T16:25:48.051Z,5.20
2022-10-26T16:28:17.351Z,5.10
2022-10-26T16:30:45.842Z,5.30
2022-10-26T16:33:14.252Z,5.20
2022-10-26T16:35:42.356Z,5.30
2022-10-26T16:38:10.597Z,4.80
2022-10-26T16:40:42.746Z,5.70
2022-10-26T16:43:11.136Z,5.60
2022-10-26T16:45:41.848Z,5.80
2022-10-26T16:48:15.359Z,6.10
2022-10-26T16:50:43.610Z,7.40
2022-10-26T16:53:12.000Z,6.10
2022-10-26T16:55:40.344Z,6.10
2022-10-26T16:58:08.584Z,5.80
2022-10-26T17:00:37.832Z,5.50
2022-10-26T17:03:06.024Z,5.20
2022-10-26T17:05:34.381Z,5.30
2022-10-26T17:08:02.600Z,5.40
2022-10-26T17:10:30.716Z,5.40
2022-10-26T17:12:58.990Z,4.70
2022-10-26T17:15:29.020Z,4.60
2022-10-26T17:17:57.467Z,4.80
2022-10-26T17:20:25.900Z,5.20
2022-10-26T17:22:55.380Z,5.50
2022-10-26T17:25:23.581Z,6.20
2022-10-26T17:27:51.753Z,6.70
2022-10-26T17:30:19.911Z,6.50
2022-10-26T17:32:48.461Z,7.00
2022-10-26T17:35:17.035Z,7.20
2022-10-26T17:37:45.430Z,6.20
2022-10-26T17:40:13.953Z,7.40
2022-10-26T17:42:42.127Z,6.60
2022-10-26T17:45:10.677Z,6.80
2022-10-26T17:47:38.952Z,8.30
2022-10-26T17:50:08.135Z,7.60
2022-10-26T17:52:36.360Z,9.60
2022-10-26T17:55:05.072Z,9.50
2022-10-26T17:57:34.157Z,10.70
2022-10-26T18:00:03.924Z,10.50
2022-10-26T18:02:40.906Z,10.00
2022-10-26T18:05:09.634Z,10.80
2022-10-26T18:07:37.869Z,11.40
2022-10-26T18:10:13.822Z,11.90
2022-10-26T18:12:54.768Z,11.60
2022-10-26T18:15:24.029Z,12.40
2022-10-26T18:17:55.548Z,12.30
2022-10-26T18:20:28.330Z,12.20
2022-10-26T18:22:57.136Z,14.80
2022-10-26T18:25:26.209Z,14.10
2022-10-26T18:27:55.913Z,13.20
2022-10-26T18:30:24.834Z,14.10
2022-10-26T18:32:53.788Z,13.70
2022-10-26T18:35:23.615Z,13.00
2022-10-26T18:37:52.088Z,12.70
2022-10-26T18:40:20.501Z,13.30
2022-10-26T18:42:49.080Z,13.10
2022-10-26T18:45:17.537Z,12.90
2022-10-26T18:47:45.678Z,14.10
2022-10-26T18:50:13.953Z,14.30
2022-10-26T18:52:42.179Z,16.40
2022-10-26T18:55:10.334Z,15.50
2022-10-26T18:57:39.946Z,15.80
2022-10-26T19:00:08.884Z,14.30
2022-10-26T19:02:37.234Z,14.10
2022-10-26T19:05:06.412Z,14.00
2022-10-26T19:07:34.526Z,13.30
2022-10-26T19:10:02.968Z,14.80
2022-10-26T19:12:31.680Z,13.20
2022-10-26T19:14:59.787Z,13.80
2022-10-26T19:17:28.178Z,14.30
2022-10-26T19:19:57.100Z,13.30
2022-10-26T19:22:25.190Z,13.00
2022-10-26T19:24:53.453Z,13.50
2022-10-26T19:27:22.136Z,12.80
2022-10-26T19:29:50.216Z,14.40
2022-10-26T19:32:18.383Z,14.00
2022-10-26T19:34:47.125Z,15.00
2022-10-26T19:37:15.384Z,14.80
2022-10-26T19:39:43.574Z,16.30
2022-10-26T19:42:11.876Z,14.70
2022-10-26T19:44:39.986Z,14.20
2022-10-26T19:47:08.241Z,13.60
2022-10-26T19:49:36.451Z,13.10
2022-10-26T19:52:04.900Z,14.50
2022-10-26T19:54:33.353Z,14.20
2022-10-26T19:57:01.850Z,13.50
2022-10-26T19:59:30.024Z,13.80
2022-10-26T20:02:00.381Z,14.10
2022-10-26T20:04:28.681Z,12.60
2022-10-26T20:06:56.844Z,12.60
2022-10-26T20:09:25.158Z,12.80
2022-10-26T20:11:53.552Z,11.90
2022-10-26T20:14:21.714Z,13.10
2022-10-26T20:16:49.857Z,12.40
2022-10-26T20:19:18.498Z,13.80
2022-10-26T20:21:46.848Z,14.40
2022-10-26T20:24:14.990Z,13.70
2022-10-26T20:26:43.169Z,12.20
2022-10-26T20:29:11.594Z,12.50
2022-10-26T20:31:39.830Z,12.30
2022-10-26T20:34:08.069Z,12.10
2022-10-26T20:36:36.268Z,12.70
2022-10-26T20:39:05.143Z,14.10
2022-10-26T20:41:33.725Z,14.00
2022-10-26T20:44:02.366Z,14.90
2022-10-26T20:46:30.947Z,16.00
2022-10-26T20:48:59.568Z,14.80
2022-10-26T20:52:02.732Z,15.90
2022-10-26T20:54:59.492Z,17.90
2022-10-26T20:57:30.932Z,17.30
2022-10-26T21:00:09.254Z,17.50
2022-10-26T21:02:37.989Z,16.10
2022-10-26T21:05:06.628Z,17.00
2022-10-26T21:07:34.783Z,17.80
2022-10-26T21:10:02.902Z,18.90
2022-10-26T21:12:31.120Z,17.10
2022-10-26T21:14:59.263Z,18.00
2022-10-26T21:17:27.635Z,19.00
2022-10-26T21:19:56.131Z,18.20
2022-10-26T21:22:24.424Z,18.00
2022-10-26T21:24:52.524Z,18.20
2022-10-26T21:27:20.634Z,17.60
2022-10-26T21:29:48.757Z,17.80
2022-10-26T21:32:16.905Z,18.10
2022-10-26T21:34:45.160Z,17.40
2022-10-26T21:37:13.421Z,18.90
2022-10-26T21:39:41.558Z,19.60
2022-10-26T21:42:09.713Z,20.00
2022-10-26T21:44:41.752Z,19.80
2022-10-26T21:47:11.442Z,19.90
2022-10-26T21:52:13.034Z,18.80
2022-10-26T21:54:41.488Z,18.60
2022-10-26T21:57:09.670Z,19.80
2022-10-26T21:59:37.774Z,17.50
2022-10-26T22:02:05.997Z,19.60
2022-10-26T22:04:34.390Z,18.90
2022-10-26T22:07:02.522Z,17.50
2022-10-26T22:09:30.823Z,18.00
2022-10-26T22:11:59.043Z,17.00
2022-10-26T22:14:27.129Z,17.00
2022-10-26T22:16:55.386Z,17.80
2022-10-26T22:19:23.549Z,17.40
2022-10-26T22:21:51.732Z,18.20
2022-10-26T22:24:20.047Z,20.40
2022-10-26T22:26:51.216Z,18.50
2022-10-26T22:29:19.450Z,18.80
2022-10-26T22:31:47.698Z,17.60
2022-10-26T22:34:16.685Z,17.90
2022-10-26T22:36:45.093Z,17.00
2022-10-26T22:39:13.823Z,19.00
2022-10-26T22:41:42.054Z,18.50
2022-10-26T22:44:10.476Z,18.30
2022-10-26T22:46:38.695Z,19.40
2022-10-26T22:49:06.810Z,18.00
2022-10-26T22:51:35.424Z,18.80
2022-10-26T22:54:05.285Z,18.30
2022-10-26T22:56:36.018Z,19.80
2022-10-26T22:59:05.945Z,17.10
2022-10-26T23:01:37.900Z,17.20
2022-10-26T23:04:06.088Z,18.50
2022-10-26T23:06:34.459Z,19.50
2022-10-26T23:09:02.794Z,20.00
2022-10-26T23:11:31.102Z,19.60
2022-10-26T23:14:01.006Z,21.20
2022-10-26T23:16:30.401Z,20.60
2022-10-26T23:18:59.914Z,19.20
2022-10-26T23:21:29.389Z,19.80
2022-10-26T23:23:58.209Z,19.30
2022-10-26T23:26:26.879Z,20.30
2022-10-26T23:28:55.102Z,19.30
2022-10-26T23:31:26.337Z,19.70
2022-10-26T23:33:56.405Z,19.70
2022-10-26T23:36:25.162Z,19.70
2022-10-26T23:38:53.459Z,19.60
2022-10-26T23:41:21.603Z,18.80
2022-10-26T23:43:49.988Z,18.80
2022-10-26T23:46:18.163Z,18.60
2022-10-26T23:48:46.343Z,17.60
2022-10-26T23:51:14.528Z,19.80
2022-10-26T23:53:42.799Z,19.40
2022-10-26T23:56:11.047Z,19.50
2022-10-26T23:58:39.401Z,19.00
